Time;durP1;ratioP1;P1;durP2;ratioP2;P2;SDS_P1;SDS_P2;PMS_P1;PMS_P2;Temp;Humidity;BMP_temperature;BMP_pressure;BME280_temperature;BME280_humidity;BME280_pressure;Samples;Min_cycle;Max_cycle;Signal;HPM_P1;HPM_P2
2022/08/03 00:01:26;;;;;;;8.68;2.35;;;;;;;;;;5031512;28;97123;-74
2022/08/03 00:03:53;;;;;;;6.40;1.70;;;;;;;;;;5030649;28;95384;-76
2022/08/03 00:06:19;;;;;;;11.05;2.10;;;;;;;;;;5012152;28;96828;-76
2022/08/03 00:08:46;;;;;;;9.70;2.28;;;;;;;;;;5027989;28;97429;-75
2022/08/03 00:11:12;;;;;;;5.90;1.90;;;;;;;;;;5018423;28;95937;-75
2022/08/03 00:13:38;;;;;;;7.35;1.90;;;;;;;;;;5030460;28;97523;-75
2022/08/03 00:16:05;;;;;;;8.77;1.95;;;;;;;;;;5032389;28;95501;-74
2022/08/03 00:18:31;;;;;;;5.85;1.73;;;;;;;;;;5026922;28;97101;-74
2022/08/03 00:20:57;;;;;;;4.75;1.80;;;;;;;;;;5028981;28;97735;-75
2022/08/03 00:23:24;;;;;;;5.63;1.65;;;;;;;;;;5031892;28;95315;-75
2022/08/03 00:25:50;;;;;;;7.63;2.00;;;;;;;;;;5032026;28;96878;-75
2022/08/03 00:28:16;;;;;;;6.53;1.90;;;;;;;;;;5028590;28;97451;-75
2022/08/03 00:30:43;;;;;;;12.77;2.53;;;;;;;;;;5034240;28;95203;-75
2022/08/03 00:33:10;;;;;;;7.72;2.00;;;;;;;;;;5031082;28;97417;-75
2022/08/03 00:35:36;;;;;;;11.38;1.95;;;;;;;;;;5027361;28;96946;-75
2022/08/03 00:38:16;;;;;;;6.95;1.90;;;;;;;;;;5030510;28;96854;-75
2022/08/03 00:40:42;;;;;;;6.72;1.90;;;;;;;;;;5005718;28;97429;-75
2022/08/03 00:43:09;;;;;;;9.80;2.20;;;;;;;;;;5011862;28;95406;-76
2022/08/03 00:45:37;;;;;;;6.00;1.85;;;;;;;;;;5013740;28;97137;-75
2022/08/03 00:48:05;;;;;;;15.48;2.40;;;;;;;;;;5031000;28;97489;-75
2022/08/03 00:50:48;;;;;;;10.30;2.78;;;;;;;;;;5024454;28;96779;-75
2022/08/03 00:53:19;;;;;;;7.53;2.22;;;;;;;;;;5037608;28;97088;-75
2022/08/03 00:55:45;;;;;;;12.85;2.95;;;;;;;;;;5015831;28;95378;-75
2022/08/03 00:58:12;;;;;;;12.35;2.42;;;;;;;;;;5033067;28;97301;-75
2022/08/03 01:00:39;;;;;;;8.27;2.53;;;;;;;;;;5032654;28;97392;-75
2022/08/03 01:03:06;;;;;;;7.25;2.38;;;;;;;;;;5034029;28;95752;-76
2022/08/03 01:05:53;;;;;;;8.13;2.30;;;;;;;;;;5034207;28;96507;-76
2022/08/03 01:08:38;;;;;;;11.20;2.70;;;;;;;;;;4981378;28;97435;-75
2022/08/03 01:11:04;;;;;;;7.85;2.28;;;;;;;;;;5033594;28;95287;-75
2022/08/03 01:13:56;;;;;;;11.27;2.60;;;;;;;;;;5034504;28;97054;-75
2022/08/03 01:16:58;;;;;;;7.53;2.37;;;;;;;;;;5033576;28;99055;-75
2022/08/03 01:19:34;;;;;;;13.35;2.78;;;;;;;;;;5034392;28;96814;-75
2022/08/03 01:22:06;;;;;;;12.18;3.00;;;;;;;;;;5014382;28;97608;-75
2022/08/03 01:24:42;;;;;;;7.82;3.13;;;;;;;;;;5031167;28;95382;-75
2022/08/03 01:27:16;;;;;;;7.55;2.80;;;;;;;;;;5032194;28;97121;-74
2022/08/03 01:29:52;;;;;;;10.57;2.90;;;;;;;;;;5028709;28;97340;-74
2022/08/03 01:32:20;;;;;;;13.60;3.30;;;;;;;;;;5032634;28;95309;-75
2022/08/03 01:35:21;;;;;;;13.63;3.03;;;;;;;;;;5019394;28;98361;-75
2022/08/03 01:37:54;;;;;;;11.00;2.95;;;;;;;;;;5031968;28;97590;-75
2022/08/03 01:40:21;;;;;;;12.15;3.00;;;;;;;;;;5035916;28;97010;-75
2022/08/03 01:42:48;;;;;;;7.10;3.22;;;;;;;;;;5013327;28;96756;-75
2022/08/03 01:45:17;;;;;;;9.77;2.80;;;;;;;;;;5032560;28;95476;-75
2022/08/03 01:47:44;;;;;;;13.80;3.38;;;;;;;;;;5032770;28;96912;-75
2022/08/03 01:50:12;;;;;;;9.55;2.85;;;;;;;;;;5015301;28;97712;-74
2022/08/03 01:52:40;;;;;;;14.50;2.75;;;;;;;;;;5033879;28;95510;-74
2022/08/03 01:55:07;;;;;;;15.00;2.72;;;;;;;;;;5016498;28;96897;-75
2022/08/03 01:57:35;;;;;;;12.98;3.28;;;;;;;;;;5032227;28;97491;-74
2022/08/03 02:00:22;;;;;;;5.78;2.30;;;;;;;;;;5020073;28;96642;-74
2022/08/03 02:02:49;;;;;;;14.35;3.50;;;;;;;;;;5035843;27;96936;-74
2022/08/03 02:05:17;;;;;;;14.38;3.58;;;;;;;;;;5032706;28;95513;-75
2022/08/03 02:07:45;;;;;;;12.52;3.28;;;;;;;;;;5016080;28;96852;-75
2022/08/03 02:10:12;;;;;;;12.73;3.53;;;;;;;;;;5013745;28;97685;-75
2022/08/03 02:12:38;;;;;;;9.57;3.65;;;;;;;;;;5032162;28;95313;-74
2022/08/03 02:15:06;;;;;;;9.85;3.55;;;;;;;;;;5032142;28;96049;-74
2022/08/03 02:17:32;;;;;;;10.45;3.95;;;;;;;;;;5032054;27;97316;-74
2022/08/03 02:20:06;;;;;;;10.43;3.08;;;;;;;;;;5032353;28;95732;-74
2022/08/03 02:22:32;;;;;;;9.27;3.30;;;;;;;;;;5016090;28;97105;-74
2022/08/03 02:24:58;;;;;;;9.55;2.63;;;;;;;;;;5034912;28;97584;-74
2022/08/03 02:27:26;;;;;;;10.82;2.90;;;;;;;;;;5033047;28;96802;-75
2022/08/03 02:29:55;;;;;;;15.60;3.50;;;;;;;;;;5029892;28;96890;-74
2022/08/03 02:32:28;;;;;;;12.55;3.45;;;;;;;;;;5030762;28;95231;-74
2022/08/03 02:34:54;;;;;;;10.85;3.38;;;;;;;;;;5028198;28;96867;-74
2022/08/03 02:37:24;;;;;;;11.13;3.00;;;;;;;;;;5015116;28;97331;-74
2022/08/03 02:39:52;;;;;;;10.60;3.63;;;;;;;;;;5033068;28;95639;-75
2022/08/03 02:42:20;;;;;;;12.95;3.03;;;;;;;;;;5032514;28;96843;-74
2022/08/03 02:44:48;;;;;;;14.20;3.70;;;;;;;;;;5034047;28;96530;-73
2022/08/03 02:47:15;;;;;;;16.65;3.67;;;;;;;;;;5032228;28;97188;-74
2022/08/03 02:49:43;;;;;;;12.85;3.65;;;;;;;;;;5029060;28;97407;-74
2022/08/03 02:52:18;;;;;;;13.52;2.97;;;;;;;;;;5011896;28;95357;-75
2022/08/03 02:54:45;;;;;;;14.77;3.90;;;;;;;;;;5030902;28;96270;-74
2022/08/03 02:57:12;;;;;;;13.32;3.72;;;;;;;;;;5032829;28;97656;-75
2022/08/03 02:59:39;;;;;;;11.95;3.70;;;;;;;;;;5030826;28;95398;-75
2022/08/03 03:02:06;;;;;;;15.95;3.60;;;;;;;;;;5031938;28;97295;-75
2022/08/03 03:04:32;;;;;;;13.05;3.65;;;;;;;;;;5030577;28;97606;-75
2022/08/03 03:06:59;;;;;;;8.15;3.13;;;;;;;;;;5034123;28;95476;-76
2022/08/03 03:09:29;;;;;;;12.88;4.45;;;;;;;;;;5014385;28;97330;-75
2022/08/03 03:12:09;;;;;;;12.85;4.25;;;;;;;;;;5014504;28;95323;-75
2022/08/03 03:14:36;;;;;;;13.60;4.13;;;;;;;;;;5031466;27;97253;-76
2022/08/03 03:17:03;;;;;;;9.93;3.85;;;;;;;;;;5032463;27;97429;-77
2022/08/03 03:19:29;;;;;;;13.73;4.35;;;;;;;;;;5030985;27;97116;-74
2022/08/03 03:21:57;;;;;;;13.90;3.35;;;;;;;;;;5029639;28;97158;-75
2022/08/03 03:24:24;;;;;;;15.20;3.83;;;;;;;;;;5032288;28;97797;-74
2022/08/03 03:26:50;;;;;;;20.88;3.70;;;;;;;;;;5031516;28;95342;-75
2022/08/03 03:29:17;;;;;;;9.32;3.50;;;;;;;;;;5034748;28;97449;-74
2022/08/03 03:31:44;;;;;;;11.70;3.63;;;;;;;;;;5029455;28;95486;-76
2022/08/03 03:34:10;;;;;;;9.63;3.88;;;;;;;;;;5031810;28;96837;-76
2022/08/03 03:36:37;;;;;;;13.05;4.15;;;;;;;;;;5027031;28;97706;-75
2022/08/03 03:39:04;;;;;;;13.98;4.28;;;;;;;;;;5014177;28;95381;-75
2022/08/03 03:41:41;;;;;;;12.57;3.58;;;;;;;;;;5030739;28;96736;-76
2022/08/03 03:44:07;;;;;;;13.65;4.28;;;;;;;;;;5031268;28;97438;-75
2022/08/03 03:46:34;;;;;;;14.68;4.45;;;;;;;;;;5030648;28;95408;-76
2022/08/03 03:49:00;;;;;;;16.48;3.67;;;;;;;;;;5026032;28;96800;-75
2022/08/03 03:51:27;;;;;;;12.95;3.75;;;;;;;;;;5031070;27;97200;-76
2022/08/03 03:53:57;;;;;;;9.55;3.65;;;;;;;;;;5013302;28;96978;-76
2022/08/03 03:56:24;;;;;;;19.25;4.28;;;;;;;;;;5031985;28;97777;-75
2022/08/03 03:58:51;;;;;;;15.18;4.07;;;;;;;;;;5031993;28;95223;-75
2022/08/03 04:01:18;;;;;;;18.27;4.38;;;;;;;;;;5031120;28;96868;-76
2022/08/03 04:03:44;;;;;;;10.63;3.83;;;;;;;;;;5029857;28;97240;-76
2022/08/03 04:11:48;;;;;;;14.18;3.97;;;;;;;;;;5030597;28;97604;-75
2022/08/03 04:14:25;;;;;;;12.38;3.67;;;;;;;;;;5034754;28;95302;-75
2022/08/03 04:17:00;;;;;;;14.15;4.18;;;;;;;;;;5013847;28;97351;-76
2022/08/03 04:19:33;;;;;;;13.18;3.40;;;;;;;;;;5031314;28;95706;-76
2022/08/03 04:22:01;;;;;;;12.70;3.15;;;;;;;;;;5026482;28;97674;-76
2022/08/03 04:24:31;;;;;;;13.15;3.30;;;;;;;;;;5031007;28;97473;-75
2022/08/03 04:26:59;;;;;;;12.90;4.13;;;;;;;;;;5032522;27;95227;-76
2022/08/03 04:29:27;;;;;;;15.27;4.47;;;;;;;;;;5032016;28;96786;-76
2022/08/03 19:59:17;;;;;;;7.53;2.20;;;;;;;;;;5070781;27;1293746;-77
2022/08/03 20:01:45;;;;;;;3.95;1.60;;;;;;;;;;5082836;27;97289;-79
2022/08/03 20:04:16;;;;;;;8.63;1.98;;;;;;;;;;5074467;27;95572;-78
2022/08/03 20:06:46;;;;;;;6.85;1.70;;;;;;;;;;5069237;27;97053;-75
2022/08/03 20:09:15;;;;;;;7.50;1.70;;;;;;;;;;5082042;27;96054;-76
2022/08/03 20:11:41;;;;;;;7.30;1.90;;;;;;;;;;5090424;27;95357;-76
2022/08/03 20:14:13;;;;;;;7.90;2.65;;;;;;;;;;5084552;27;96918;-75
2022/08/03 20:16:52;;;;;;;7.68;1.95;;;;;;;;;;5088962;27;97464;-76
2022/08/03 20:19:18;;;;;;;7.40;1.75;;;;;;;;;;5087057;27;95232;-77
2022/08/03 20:21:46;;;;;;;9.45;2.10;;;;;;;;;;5084497;27;97911;-76
2022/08/03 20:24:18;;;;;;;7.93;2.20;;;;;;;;;;5069099;27;95414;-77
2022/08/03 20:26:54;;;;;;;7.97;2.80;;;;;;;;;;5069029;27;96915;-75
2022/08/03 20:29:26;;;;;;;6.38;2.63;;;;;;;;;;5072391;27;96374;-76
2022/08/03 20:32:13;;;;;;;14.13;2.42;;;;;;;;;;5089258;27;95190;-76
2022/08/03 20:34:39;;;;;;;7.25;2.50;;;;;;;;;;5086589;27;96830;-76
2022/08/03 20:37:06;;;;;;;6.05;2.50;;;;;;;;;;5068735;27;97327;-76
2022/08/03 20:39:40;;;;;;;9.90;2.55;;;;;;;;;;5066982;27;95279;-76
2022/08/03 20:42:14;;;;;;;13.13;2.95;;;;;;;;;;5084657;27;99944;-76
2022/08/03 20:44:46;;;;;;;11.02;2.92;;;;;;;;;;5084690;27;95664;-76
2022/08/03 20:47:33;;;;;;;11.50;3.00;;;;;;;;;;5090265;27;95772;-76
2022/08/03 20:50:01;;;;;;;5.00;2.45;;;;;;;;;;5077443;27;97392;-75
2022/08/03 20:52:30;;;;;;;13.35;2.70;;;;;;;;;;5069301;27;95403;-75
2022/08/03 20:54:57;;;;;;;14.70;2.97;;;;;;;;;;5071360;27;96836;-76
2022/08/03 20:57:27;;;;;;;8.98;3.13;;;;;;;;;;5086226;27;96289;-76
2022/08/03 21:00:08;;;;;;;9.50;2.75;;;;;;;;;;5077100;27;96656;-76
2022/08/03 21:02:37;;;;;;;7.28;2.58;;;;;;;;;;5075836;27;96939;-77
2022/08/03 21:05:05;;;;;;;9.30;2.63;;;;;;;;;;5071839;27;97115;-77
2022/08/03 21:08:01;;;;;;;7.40;2.22;;;;;;;;;;5080400;27;98910;-77
2022/08/03 21:10:33;;;;;;;6.70;2.38;;;;;;;;;;5072969;27;97559;-77
2022/08/03 21:13:03;;;;;;;;;;;;;;;;;;5073533;27;95264;-77
2022/08/03 21:15:42;;;;;;;9.70;3.05;;;;;;;;;;5061982;27;125687;-77
2022/08/03 21:18:34;;;;;;;10.90;3.13;;;;;;;;;;5057497;27;99244;-78
2022/08/03 21:21:00;;;;;;;;;;;;;;;;;;5066220;27;95197;-77
2022/08/03 21:23:27;;;;;;;10.48;2.85;;;;;;;;;;5074112;27;126858;-77
2022/08/03 21:26:15;;;;;;;11.10;2.60;;;;;;;;;;5075070;27;97600;-77
2022/08/03 21:28:41;;;;;;;14.98;2.85;;;;;;;;;;5076178;27;95408;-77
2022/08/03 21:31:08;;;;;;;13.13;2.42;;;;;;;;;;5071670;27;97940;-77
2022/08/03 21:33:35;;;;;;;8.45;2.60;;;;;;;;;;5056812;27;96827;-77
2022/08/03 21:36:05;;;;;;;;;;;;;;;;;;5055808;27;96833;-77
2022/08/03 21:38:33;;;;;;;6.07;2.47;;;;;;;;;;5065764;27;126871;-77
2022/08/03 21:41:00;;;;;;;10.23;2.55;;;;;;;;;;5069532;27;96982;-77
2022/08/03 21:43:26;;;;;;;8.88;2.75;;;;;;;;;;5075385;27;96789;-77
2022/08/03 21:45:59;;;;;;;13.18;3.00;;;;;;;;;;5063531;27;97366;-77
2022/08/03 21:48:26;;;;;;;7.55;2.83;;;;;;;;;;5059887;27;95358;-77
2022/08/03 21:50:53;;;;;;;12.07;2.70;;;;;;;;;;5059111;27;96971;-77
2022/08/03 21:53:22;;;;;;;7.82;2.90;;;;;;;;;;5069864;27;95498;-77
2022/08/03 21:55:53;;;;;;;10.55;3.08;;;;;;;;;;5059245;27;96771;-77
2022/08/03 21:58:24;;;;;;;22.83;2.83;;;;;;;;;;5074783;27;97476;-77
2022/08/03 22:00:55;;;;;;;9.43;2.55;;;;;;;;;;5070809;27;95222;-78
2022/08/03 22:03:23;;;;;;;7.28;2.90;;;;;;;;;;5056664;27;96791;-77
2022/08/03 22:05:50;;;;;;;6.95;3.00;;;;;;;;;;5054021;27;97495;-77
2022/08/03 22:08:16;;;;;;;10.70;2.85;;;;;;;;;;5060047;27;95390;-77
2022/08/03 22:10:43;;;;;;;7.45;3.22;;;;;;;;;;5053349;27;96855;-77
2022/08/03 22:13:13;;;;;;;9.38;4.95;;;;;;;;;;5055803;27;95429;-76
2022/08/03 22:15:40;;;;;;;8.25;4.70;;;;;;;;;;5054117;27;97675;-76
2022/08/03 22:18:06;;;;;;;12.60;5.20;;;;;;;;;;5060893;27;97741;-76
2022/08/03 22:20:33;;;;;;;18.92;5.88;;;;;;;;;;5074123;27;95168;-76
2022/08/03 22:23:00;;;;;;;15.55;5.40;;;;;;;;;;5059470;27;96721;-76
2022/08/03 22:25:28;;;;;;;11.60;4.97;;;;;;;;;;5054147;27;97697;-76
2022/08/03 22:27:55;;;;;;;7.85;4.90;;;;;;;;;;5059311;27;96717;-76
2022/08/03 22:30:22;;;;;;;16.08;4.45;;;;;;;;;;5072799;27;96755;-76
2022/08/03 22:32:50;;;;;;;9.38;4.50;;;;;;;;;;5077819;27;97366;-76
2022/08/03 22:35:17;;;;;;;6.85;4.00;;;;;;;;;;5056747;27;96703;-77
2022/08/03 22:37:44;;;;;;;10.63;4.13;;;;;;;;;;5053318;27;97663;-76
2022/08/03 22:40:12;;;;;;;11.63;4.50;;;;;;;;;;5074828;27;95210;-76
2022/08/03 22:42:39;;;;;;;9.77;4.47;;;;;;;;;;5072665;27;96792;-76
2022/08/03 22:45:06;;;;;;;12.25;4.65;;;;;;;;;;5074405;27;97320;-76
2022/08/03 22:47:37;;;;;;;9.93;4.55;;;;;;;;;;5057051;27;95762;-76
2022/08/03 22:50:04;;;;;;;10.80;4.23;;;;;;;;;;5053515;27;95497;-76
2022/08/03 22:52:52;;;;;;;12.20;4.03;;;;;;;;;;5053711;27;99076;-76
2022/08/03 22:55:19;;;;;;;13.00;3.70;;;;;;;;;;5056973;27;95450;-76
2022/08/03 22:57:50;;;;;;;;;;;;;;;;;;5052653;27;97725;-76
2022/08/03 23:00:21;;;;;;;11.15;3.63;;;;;;;;;;5073353;27;117528;-76
2022/08/03 23:02:48;;;;;;;5.95;3.53;;;;;;;;;;5065602;27;95717;-76
2022/08/03 23:05:25;;;;;;;11.05;4.75;;;;;;;;;;5070313;27;97234;-75
2022/08/03 23:08:13;;;;;;;11.90;3.92;;;;;;;;;;5053858;27;95312;-76
2022/08/03 23:10:40;;;;;;;10.52;3.67;;;;;;;;;;5052007;27;96840;-76
2022/08/03 23:13:13;;;;;;;12.00;3.58;;;;;;;;;;5053229;27;97347;-76
2022/08/03 23:15:39;;;;;;;8.80;3.58;;;;;;;;;;5053429;27;95482;-76
2022/08/03 23:18:06;;;;;;;9.23;3.70;;;;;;;;;;5055748;27;97272;-76
2022/08/03 23:20:33;;;;;;;11.65;3.65;;;;;;;;;;5052677;27;95414;-76
2022/08/03 23:22:59;;;;;;;7.35;4.10;;;;;;;;;;5072365;27;96745;-76
2022/08/03 23:25:26;;;;;;;7.05;3.90;;;;;;;;;;5069207;27;97408;-76
2022/08/03 23:27:53;;;;;;;8.65;4.10;;;;;;;;;;5066677;27;96737;-76
2022/08/03 23:30:32;;;;;;;7.78;3.83;;;;;;;;;;5073911;27;96815;-76
2022/08/03 23:32:59;;;;;;;12.10;4.35;;;;;;;;;;5067067;27;97565;-76
2022/08/03 23:38:34;;;;;;;9.50;3.67;;;;;;;;;;5064373;27;98961;-76
2022/08/03 23:41:02;;;;;;;8.73;3.38;;;;;;;;;;5076308;27;97445;-76
2022/08/03 23:43:29;;;;;;;14.48;3.75;;;;;;;;;;5073442;27;96714;-76
2022/08/03 23:46:16;;;;;;;8.82;3.90;;;;;;;;;;5071001;27;99609;-76
2022/08/03 23:48:43;;;;;;;7.10;3.47;;;;;;;;;;5059743;27;95356;-76
2022/08/03 23:51:16;;;;;;;9.20;3.30;;;;;;;;;;5054778;27;96706;-76
2022/08/03 23:53:58;;;;;;;14.68;3.60;;;;;;;;;;5071729;27;97416;-77
2022/08/03 23:56:27;;;;;;;9.20;3.22;;;;;;;;;;5070716;27;95984;-77
2022/08/03 23:59:10;;;;;;;8.07;2.97;;;;;;;;;;5072979;27;97092;-77
